createdAt,value
2023-04-14T00:01:26.127Z,97383.31
2023-04-14T00:06:27.929Z,97372.44
2023-04-14T00:11:29.727Z,97370.13
2023-04-14T00:16:31.780Z,97371.66
2023-04-14T00:21:33.626Z,97373.81
2023-04-14T00:26:35.494Z,97376.75
2023-04-14T00:31:37.445Z,97374.31
2023-04-14T00:36:39.500Z,97365.00
2023-04-14T00:41:41.514Z,97379.66
2023-04-14T00:46:43.952Z,97371.88
2023-04-14T00:51:47.296Z,97371.16
2023-04-14T00:56:54.173Z,97375.03
2023-04-14T01:01:57.315Z,97375.03
2023-04-14T01:06:59.254Z,97371.22
2023-04-14T01:12:26.232Z,97375.88
2023-04-14T01:17:39.204Z,97375.13
2023-04-14T01:22:59.625Z,97385.16
2023-04-14T01:28:32.634Z,97381.19
2023-04-14T01:33:38.424Z,97381.13
2023-04-14T01:38:43.830Z,97384.94
2023-04-14T01:43:50.040Z,97395.06
2023-04-14T01:48:52.227Z,97403.66
2023-04-14T01:53:56.548Z,97392.88
2023-04-14T01:58:59.989Z,97383.63
2023-04-14T02:04:03.130Z,97377.06
2023-04-14T02:09:10.437Z,97372.44
2023-04-14T02:14:13.967Z,97367.38
2023-04-14T02:19:20.378Z,97368.91
2023-04-14T02:24:23.050Z,97363.94
2023-04-14T02:29:26.427Z,97361.97
2023-04-14T02:34:33.871Z,97354.25
2023-04-14T02:39:43.565Z,97366.63
2023-04-14T02:44:50.298Z,97369.78
2023-04-14T02:49:54.297Z,97367.41
2023-04-14T02:54:59.434Z,97365.88
2023-04-14T03:00:02.434Z,97367.06
2023-04-14T03:05:07.487Z,97363.13
2023-04-14T03:10:20.179Z,97366.63
2023-04-14T03:15:24.809Z,97368.94
2023-04-14T03:20:27.439Z,97370.47
2023-04-14T03:25:33.503Z,97372.06
2023-04-14T03:30:41.512Z,97368.09
2023-04-14T03:35:46.831Z,97367.28
2023-04-14T03:40:50.488Z,97378.91
2023-04-14T03:45:57.588Z,97375.44
2023-04-14T03:51:02.771Z,97356.16
2023-04-14T03:56:06.304Z,97351.28
2023-04-14T04:01:08.902Z,97354.19
2023-04-14T04:06:11.982Z,97355.56
2023-04-14T04:11:18.873Z,97345.69
2023-04-14T04:16:22.537Z,97350.47
2023-04-14T04:21:27.471Z,97339.53
2023-04-14T04:26:29.684Z,97343.00
2023-04-14T04:31:33.723Z,97342.34
2023-04-14T04:36:36.818Z,97342.91
2023-04-14T04:41:38.786Z,97355.44
2023-04-14T04:46:46.974Z,97356.34
2023-04-14T04:51:50.769Z,97365.28
2023-04-14T04:56:54.325Z,97375.03
2023-04-14T05:01:56.494Z,97387.44
2023-04-14T05:06:58.577Z,97394.47
2023-04-14T05:12:00.718Z,97389.81
2023-04-14T05:17:02.676Z,97390.97
2023-04-14T05:22:04.456Z,97396.75
2023-04-14T05:27:14.157Z,97395.88
2023-04-14T05:32:16.445Z,97396.19
2023-04-14T05:37:18.272Z,97391.66
2023-04-14T05:42:20.054Z,97403.66
2023-04-14T05:47:22.197Z,97398.91
2023-04-14T05:52:24.327Z,97389.28
2023-04-14T05:57:26.155Z,97393.66
2023-04-14T06:02:28.042Z,97391.13
2023-04-14T06:07:30.013Z,97387.09
2023-04-14T06:12:31.818Z,97383.34
2023-04-14T06:17:34.116Z,97376.44
2023-04-14T06:22:35.935Z,97381.91
2023-04-14T06:27:37.812Z,97373.41
2023-04-14T06:32:39.610Z,97367.22
2023-04-14T06:37:41.416Z,97358.72
2023-04-14T06:42:43.222Z,97356.47
2023-04-14T06:47:45.140Z,97359.22
2023-04-14T06:52:46.990Z,97359.63
2023-04-14T06:57:48.839Z,97346.50
2023-04-14T07:02:50.733Z,97346.50
2023-04-14T07:07:52.594Z,97338.78
2023-04-14T07:12:54.452Z,97339.50
2023-04-14T07:17:59.413Z,97336.41
2023-04-14T07:23:01.902Z,97348.00
2023-04-14T07:28:05.166Z,97340.19
2023-04-14T07:33:07.156Z,97345.59
2023-04-14T07:38:08.956Z,97348.00
2023-04-14T07:43:11.674Z,97356.50
2023-04-14T07:48:14.012Z,97368.09
2023-04-14T07:53:16.000Z,97381.19
2023-04-14T07:58:17.806Z,97382.78
2023-04-14T08:03:19.759Z,97374.28
2023-04-14T08:08:21.685Z,97359.53
2023-04-14T08:13:23.577Z,97354.53
2023-04-14T08:18:25.877Z,97350.28
2023-04-14T08:23:27.802Z,97351.78
2023-04-14T08:28:29.697Z,97347.91
2023-04-14T08:33:31.487Z,97352.16
2023-04-14T08:38:33.332Z,97349.38
2023-04-14T08:43:38.196Z,97357.81
2023-04-14T08:48:40.931Z,97348.53
2023-04-14T08:53:45.242Z,97352.06
2023-04-14T08:58:47.644Z,97341.44
2023-04-14T09:03:50.629Z,97331.34
2023-04-14T09:08:53.031Z,97334.03
2023-04-14T09:13:56.993Z,97334.53
2023-04-14T09:19:07.200Z,97324.44
2023-04-14T09:24:12.014Z,97324.00
2023-04-14T09:29:14.016Z,97332.78
2023-04-14T09:34:21.085Z,97334.25
2023-04-14T09:39:22.987Z,97337.94
2023-04-14T09:44:24.842Z,97346.44
2023-04-14T09:49:27.998Z,97348.72
2023-04-14T09:54:30.428Z,97338.72
2023-04-14T09:59:37.201Z,97332.53
2023-04-14T10:04:39.142Z,97345.13
2023-04-14T10:09:41.789Z,97324.69
2023-04-14T10:14:44.498Z,97323.22
2023-04-14T10:19:46.808Z,97316.69
2023-04-14T10:24:49.908Z,97312.34
2023-04-14T10:29:52.043Z,97323.22
2023-04-14T10:34:58.912Z,97317.88
2023-04-14T10:40:05.526Z,97316.00
2023-04-14T10:45:08.977Z,97316.44
2023-04-14T10:50:16.016Z,97315.94
2023-04-14T10:55:24.624Z,97318.22
2023-04-14T11:00:29.121Z,97308.88
2023-04-14T11:05:34.236Z,97299.28
2023-04-14T11:10:36.693Z,97301.66
2023-04-14T11:15:57.279Z,97287.31
2023-04-14T11:21:06.576Z,97280.78
2023-04-14T11:26:10.794Z,97278.38
2023-04-14T11:31:15.878Z,97278.38
2023-04-14T11:36:17.809Z,97283.75
2023-04-14T11:41:21.656Z,97272.22
2023-04-14T11:46:23.595Z,97279.19
2023-04-14T11:51:30.604Z,97266.81
2023-04-14T11:56:33.264Z,97262.91
2023-04-14T12:01:35.442Z,97258.19
2023-04-14T12:06:39.390Z,97251.97
2023-04-14T12:11:41.882Z,97249.69
2023-04-14T12:16:43.869Z,97247.50
2023-04-14T12:21:53.178Z,97237.50
2023-04-14T12:26:56.095Z,97235.94
2023-04-14T12:31:58.106Z,97232.03
2023-04-14T12:37:05.907Z,97229.78
2023-04-14T12:42:08.383Z,97229.44
2023-04-14T12:47:10.297Z,97222.94
2023-04-14T12:52:41.105Z,97221.41
2023-04-14T12:57:43.055Z,97222.97
2023-04-14T13:02:46.436Z,97223.69
2023-04-14T13:07:48.882Z,97219.13
2023-04-14T13:12:50.952Z,97217.66
2023-04-14T13:17:52.759Z,97211.50
2023-04-14T13:22:54.634Z,97211.88
2023-04-14T13:27:56.440Z,97203.00
2023-04-14T13:32:58.685Z,97205.25
2023-04-14T13:38:01.640Z,97196.41
2023-04-14T13:43:04.382Z,97190.56
2023-04-14T13:48:06.255Z,97191.00
2023-04-14T13:53:08.195Z,97192.47
2023-04-14T13:58:10.134Z,97195.13
2023-04-14T14:03:12.230Z,97198.28
2023-04-14T14:08:15.932Z,97196.88
2023-04-14T14:13:18.661Z,97200.75
2023-04-14T14:18:20.638Z,97201.53
2023-04-14T14:23:22.740Z,97196.56
2023-04-14T14:28:24.602Z,97195.41
2023-04-14T14:33:26.392Z,97207.78
2023-04-14T14:38:28.492Z,97212.81
2023-04-14T14:43:30.341Z,97211.63
2023-04-14T14:48:32.122Z,97210.16
2023-04-14T14:53:34.067Z,97216.41
2023-04-14T14:58:36.262Z,97212.63
2023-04-14T15:03:38.955Z,97206.47
2023-04-14T15:08:41.193Z,97214.22
2023-04-14T15:13:43.960Z,97213.78
2023-04-14T15:18:45.832Z,97223.47
2023-04-14T15:23:47.713Z,97218.09
2023-04-14T15:28:49.536Z,97221.19
2023-04-14T15:33:51.434Z,97220.34
2023-04-14T15:38:53.394Z,97223.09
2023-04-14T15:43:55.355Z,97231.59
2023-04-14T15:48:57.246Z,97221.53
2023-04-14T15:53:59.038Z,97226.19
2023-04-14T15:59:01.128Z,97228.53
2023-04-14T16:04:03.900Z,97226.19
2023-04-14T16:09:06.406Z,97225.00
2023-04-14T16:14:08.732Z,97222.69
2023-04-14T16:19:10.702Z,97225.00
2023-04-14T16:24:12.509Z,97216.47
2023-04-14T16:29:14.307Z,97223.44
2023-04-14T16:34:18.334Z,97219.56
2023-04-14T16:39:22.506Z,97211.84
2023-04-14T16:44:24.347Z,97215.31
2023-04-14T16:49:26.153Z,97225.66
2023-04-14T16:54:27.991Z,97218.66
2023-04-14T16:59:31.097Z,97214.75
2023-04-14T17:04:33.202Z,97223.63
2023-04-14T17:09:35.879Z,97218.59
2023-04-14T17:14:38.831Z,97215.47
2023-04-14T17:19:41.180Z,97222.41
2023-04-14T17:24:44.168Z,97213.13
2023-04-14T17:29:46.640Z,97216.19
2023-04-14T17:34:49.476Z,97224.59
2023-04-14T17:39:53.298Z,97222.66
2023-04-14T17:44:55.964Z,97218.38
2023-04-14T17:49:57.939Z,97218.72
2023-04-14T17:55:00.335Z,97213.66
2023-04-14T18:00:04.453Z,97224.50
2023-04-14T18:05:14.906Z,97219.84
2023-04-14T18:10:18.168Z,97221.84
2023-04-14T18:15:20.551Z,97226.00
2023-04-14T18:20:25.539Z,97229.78
2023-04-14T18:25:28.019Z,97229.38
2023-04-14T18:30:30.553Z,97229.69
2023-04-14T18:35:33.854Z,97229.66
2023-04-14T18:40:38.515Z,97235.84
2023-04-14T18:45:45.253Z,97231.25
2023-04-14T18:50:47.912Z,97226.63
2023-04-14T18:55:50.042Z,97223.16
2023-04-14T19:00:52.354Z,97224.72
2023-04-14T19:05:55.768Z,97230.59
2023-04-14T19:10:59.377Z,97227.91
2023-04-14T19:16:09.280Z,97220.59
2023-04-14T19:21:11.587Z,97216.75
2023-04-14T19:26:13.797Z,97218.72
2023-04-14T19:31:20.313Z,97216.78
2023-04-14T19:36:22.985Z,97216.41
2023-04-14T19:41:25.459Z,97204.00
2023-04-14T19:46:28.489Z,97207.47
2023-04-14T19:51:32.301Z,97202.84
2023-04-14T19:56:35.356Z,97202.03
2023-04-14T20:01:38.025Z,97198.16
2023-04-14T20:06:41.524Z,97202.06
2023-04-14T20:11:43.939Z,97197.41
2023-04-14T20:16:46.503Z,97194.25
2023-04-14T20:21:49.388Z,97189.56
2023-04-14T20:26:51.753Z,97186.50
2023-04-14T20:31:54.044Z,97177.91
2023-04-14T20:36:56.148Z,97165.53
2023-04-14T20:41:58.055Z,97168.94
2023-04-14T20:47:00.620Z,97165.84
2023-04-14T20:52:02.758Z,97152.34
2023-04-14T20:57:05.650Z,97149.63
2023-04-14T21:02:08.350Z,97148.50
2023-04-14T21:07:10.292Z,97161.69
2023-04-14T21:12:14.747Z,97160.50
2023-04-14T21:17:18.596Z,97161.69
2023-04-14T21:22:20.451Z,97162.41
2023-04-14T21:27:22.301Z,97158.88
2023-04-14T21:32:24.164Z,97163.91
2023-04-14T21:37:26.204Z,97162.34
2023-04-14T21:42:27.963Z,97162.34
2023-04-14T21:47:29.772Z,97163.91
2023-04-14T21:52:31.588Z,97156.59
2023-04-14T21:57:48.109Z,97154.63
2023-04-14T22:02:51.699Z,97151.09
2023-04-14T22:07:53.937Z,97146.03
2023-04-14T22:12:55.724Z,97140.53
2023-04-14T22:17:58.626Z,97138.66
2023-04-14T22:23:00.973Z,97137.53
2023-04-14T22:28:02.795Z,97134.81
2023-04-14T22:33:04.663Z,97136.00
2023-04-14T22:38:07.103Z,97128.97
2023-04-14T22:43:09.061Z,97122.72
2023-04-14T22:48:11.720Z,97113.34
2023-04-14T22:53:13.590Z,97114.97
2023-04-14T22:58:17.723Z,97107.13
2023-04-14T23:03:19.627Z,97106.72
2023-04-14T23:08:21.518Z,97100.03
2023-04-14T23:13:23.385Z,97104.16
2023-04-14T23:18:27.382Z,97094.09
2023-04-14T23:23:30.016Z,97093.59
2023-04-14T23:28:31.852Z,97092.81
2023-04-14T23:33:33.646Z,97090.16
2023-04-14T23:38:35.449Z,97082.88
2023-04-14T23:43:37.361Z,97084.41
2023-04-14T23:48:39.135Z,97089.19
2023-04-14T23:53:41.009Z,97072.22
2023-04-14T23:58:43.209Z,97067.56
